Time,TemperatureF,DewpointF,PressureIn,WindDirection,WindDirectionDegrees,WindSpeedMPH,WindSpeedGustMPH,Humidity,HourlyPrecipIn,Conditions,Clouds,dailyrainin,SoftwareType,DateUTC
2013-03-20 00:00:00,35.1,31.3,29.68,NNW,340,4.0,11.9,86,0.00,,,0.00,VWS V12.08,2013-03-20 04:00:00,
2013-03-20 00:06:00,35.1,31.3,29.68,NNW,340,4.0,11.9,86,0.00,,,0.00,VWS V12.08,2013-03-20 04:06:00,
2013-03-20 00:16:00,34.3,30.3,29.68,NNW,344,7.2,11.4,85,0.00,,,0.00,VWS V12.08,2013-03-20 04:16:00,
2013-03-20 00:20:00,34.3,30.3,29.71,North,1,5.8,11.4,85,0.00,,,0.00,VWS V12.08,2013-03-20 04:20:00,
2013-03-20 00:21:00,34.2,30.1,29.71,North,2,5.8,5.8,85,0.00,,,0.00,VWS V12.08,2013-03-20 04:21:00,
2013-03-20 14:51:00,43.5,8.2,29.83,WSW,248,4.0,6.7,23,0.00,,,0.00,VWS V12.08,2013-03-20 18:51:00,
2013-03-20 15:04:00,43.0,2.4,29.83,WNW,292,5.8,6.7,18,0.00,,,0.00,VWS V12.08,2013-03-20 19:04:00,
2013-03-20 15:10:00,42.4,5.3,29.83,WSW,243,2.7,8.7,21,0.00,,,0.00,VWS V12.08,2013-03-20 19:10:00,
2013-03-20 15:16:00,42.1,1.6,29.83,NW,305,2.2,8.7,18,0.00,,,0.00,VWS V12.08,2013-03-20 19:16:00,
2013-03-20 15:25:00,41.0,0.8,29.83,NW,305,4.0,6.3,18,0.00,,,0.00,VWS V12.08,2013-03-20 19:25:00,
2013-03-20 15:31:00,40.8,0.6,29.83,West,277,4.0,7.6,18,0.00,,,0.00,VWS V12.08,2013-03-20 19:31:00,
2013-03-20 15:41:00,40.5,0.3,29.83,NNW,335,4.0,7.6,18,0.00,,,0.00,VWS V12.08,2013-03-20 19:41:00,
2013-03-20 15:46:00,40.1,0.0,29.83,NW,319,4.0,8.3,18,0.00,,,0.00,VWS V12.08,2013-03-20 19:46:00,
2013-03-20 15:56:00,39.9,3.2,29.83,NW,316,4.0,8.3,21,0.00,,,0.00,VWS V12.08,2013-03-20 19:56:00,
2013-03-20 16:04:00,39.7,-0.3,29.83,SW,224,3.1,8.3,18,0.00,,,0.00,VWS V12.08,2013-03-20 20:04:00,
2013-03-20 16:11:00,39.6,-0.4,29.83,NNW,344,3.6,7.2,18,0.00,,,0.00,VWS V12.08,2013-03-20 20:11:00,
2013-03-20 16:16:00,39.6,2.9,29.83,NNW,333,4.9,7.2,21,0.00,,,0.00,VWS V12.08,2013-03-20 20:16:00,
2013-03-20 16:26:00,39.7,3.0,29.83,NNW,327,5.4,5.4,21,0.00,,,0.00,VWS V12.08,2013-03-20 20:26:00,
2013-03-20 16:31:00,39.7,3.0,29.83,South,177,4.0,5.4,21,0.00,,,0.00,VWS V12.08,2013-03-20 20:31:00,
2013-03-20 16:41:00,40.3,5.4,29.83,WNW,300,0.0,5.4,23,0.00,,,0.00,VWS V12.08,2013-03-20 20:41:00,
2013-03-20 16:46:00,40.6,5.8,29.83,SW,230,0.0,5.4,23,0.00,,,0.00,VWS V12.08,2013-03-20 20:46:00,
2013-03-20 16:56:00,41.0,8.8,29.83,SSE,158,3.1,5.4,26,0.00,,,0.00,VWS V12.08,2013-03-20 20:56:00,
2013-03-20 17:04:00,40.6,8.4,29.83,WNW,292,2.7,5.4,26,0.00,,,0.00,VWS V12.08,2013-03-20 21:04:00,
2013-03-20 17:11:00,40.6,10.1,29.83,West,267,5.8,7.2,28,0.00,,,0.00,VWS V12.08,2013-03-20 21:11:00,
2013-03-20 17:16:00,41.0,10.4,29.83,SW,230,2.2,7.2,28,0.00,,,0.00,VWS V12.08,2013-03-20 21:16:00,
2013-03-20 17:21:00,41.0,10.4,29.83,ENE,57,0.0,2.7,28,0.00,,,0.00,VWS V12.08,2013-03-20 21:21:00,
2013-03-20 17:32:00,40.5,9.9,29.83,WNW,303,3.1,4.9,28,0.00,,,0.00,VWS V12.08,2013-03-20 21:32:00,
2013-03-20 17:40:00,40.3,10.6,29.85,WNW,300,6.3,6.3,29,0.00,,,0.00,VWS V12.08,2013-03-20 21:40:00,
2013-03-20 17:46:00,39.7,9.3,29.85,NW,323,2.7,8.1,28,0.00,,,0.00,VWS V12.08,2013-03-20 21:46:00,
2013-03-20 17:55:00,39.4,9.8,29.85,West,274,3.6,8.1,29,0.00,,,0.00,VWS V12.08,2013-03-20 21:55:00,
2013-03-20 18:04:00,39.2,9.6,29.85,West,279,2.7,8.1,29,0.00,,,0.00,VWS V12.08,2013-03-20 22:04:00,
2013-03-20 18:10:00,38.7,9.2,29.85,SW,227,2.7,8.3,29,0.00,,,0.00,VWS V12.08,2013-03-20 22:10:00,
2013-03-20 18:15:00,38.5,9.0,29.85,SW,232,2.7,8.3,29,0.00,,,0.00,VWS V12.08,2013-03-20 22:15:00,
2013-03-20 18:25:00,38.1,8.7,29.85,West,273,0.0,5.4,29,0.00,,,0.00,VWS V12.08,2013-03-20 22:25:00,
2013-03-20 18:31:00,38.1,8.7,29.85,WSW,250,3.6,5.4,29,0.00,,,0.00,VWS V12.08,2013-03-20 22:31:00,
2013-03-20 18:40:00,37.9,8.5,29.88,WSW,240,4.0,6.3,29,0.00,,,0.00,VWS V12.08,2013-03-20 22:40:00,
2013-03-20 18:45:00,37.9,8.5,29.88,SW,219,0.0,4.0,29,0.00,,,0.00,VWS V12.08,2013-03-20 22:45:00,
2013-03-20 18:55:00,37.8,8.4,29.88,SW,233,3.6,4.0,29,0.00,,,0.00,VWS V12.08,2013-03-20 22:55:00,
2013-03-20 19:04:00,37.8,8.4,29.88,WSW,249,3.1,4.0,29,0.00,,,0.00,VWS V12.08,2013-03-20 23:04:00,
2013-03-20 19:10:00,37.8,8.4,29.88,West,265,2.7,3.1,29,0.00,,,0.00,VWS V12.08,2013-03-20 23:10:00,
2013-03-20 19:16:00,37.8,8.4,29.88,NNW,329,0.0,3.1,29,0.00,,,0.00,VWS V12.08,2013-03-20 23:16:00,
2013-03-20 19:25:00,37.8,8.4,29.88,WSW,244,0.0,3.6,29,0.00,,,0.00,VWS V12.08,2013-03-20 23:25:00,
2013-03-20 19:31:00,37.6,9.0,29.88,NNW,341,6.3,7.6,30,0.00,,,0.00,VWS V12.08,2013-03-20 23:31:00,
2013-03-20 19:40:00,37.6,9.0,29.88,WNW,284,0.0,7.6,30,0.00,,,0.00,VWS V12.08,2013-03-20 23:40:00,
2013-03-20 19:46:00,37.6,9.0,29.88,North,353,3.1,4.0,30,0.00,,,0.00,VWS V12.08,2013-03-20 23:46:00,
2013-03-20 19:55:00,37.6,9.0,29.91,NW,314,0.0,5.8,30,0.00,,,0.00,VWS V12.08,2013-03-20 23:55:00,
2013-03-20 20:06:00,37.4,8.8,29.91,NNW,328,0.0,5.8,30,0.00,,,0.00,VWS V12.08,2013-03-21 00:06:00,
2013-03-20 20:16:00,37.4,8.8,29.88,West,265,0.0,0.0,30,0.00,,,0.00,VWS V12.08,2013-03-21 00:16:00,
2013-03-20 20:25:00,37.2,9.4,29.91,WSW,243,0.0,0.0,31,0.00,,,0.00,VWS V12.08,2013-03-21 00:25:00,
2013-03-20 20:31:00,37.0,9.2,29.91,NW,321,0.0,0.0,31,0.00,,,0.00,VWS V12.08,2013-03-21 00:31:00,
2013-03-20 20:40:00,36.9,9.1,29.91,SW,231,0.0,0.0,31,0.00,,,0.00,VWS V12.08,2013-03-21 00:40:00,
2013-03-20 20:46:00,36.7,8.9,29.91,SW,229,0.0,0.0,31,0.00,,,0.00,VWS V12.08,2013-03-21 00:46:00,
2013-03-20 20:55:00,36.3,8.6,29.91,SW,229,0.0,0.0,31,0.00,,,0.00,VWS V12.08,2013-03-21 00:55:00,
2013-03-20 21:04:00,36.1,8.4,29.91,SW,229,0.0,0.0,31,0.00,,,0.00,VWS V12.08,2013-03-21 01:04:00,
2013-03-20 21:10:00,35.8,8.1,29.91,SSE,152,0.0,0.0,31,0.00,,,0.00,VWS V12.08,2013-03-21 01:10:00,
2013-03-20 21:16:00,35.8,8.1,29.91,South,169,0.0,0.0,31,0.00,,,0.00,VWS V12.08,2013-03-21 01:16:00,
2013-03-20 21:21:00,35.6,8.0,29.91,South,189,0.0,0.0,31,0.00,,,0.00,VWS V12.08,2013-03-21 01:21:00,
2013-03-20 21:31:00,35.4,7.8,29.91,SSW,198,0.0,0.0,31,0.00,,,0.00,VWS V12.08,2013-03-21 01:31:00,
2013-03-20 21:41:00,35.1,7.5,29.91,SSW,213,0.0,0.0,31,0.00,,,0.00,VWS V12.08,2013-03-21 01:41:00,
2013-03-20 21:50:00,35.1,7.5,29.91,SSW,213,0.0,0.0,31,0.00,,,0.00,VWS V12.08,2013-03-21 01:50:00,
2013-03-20 22:04:00,34.9,7.3,29.91,SSW,213,0.0,0.0,31,0.00,,,0.00,VWS V12.08,2013-03-21 02:04:00,
2013-03-20 22:10:00,34.5,7.0,29.91,SSW,213,0.0,0.0,31,0.00,,,0.00,VWS V12.08,2013-03-21 02:10:00,
2013-03-20 22:16:00,34.2,7.4,29.91,SSW,213,0.0,0.0,32,0.00,,,0.00,VWS V12.08,2013-03-21 02:16:00,
2013-03-20 22:21:00,34.0,7.2,29.91,SSW,213,0.0,0.0,32,0.00,,,0.00,VWS V12.08,2013-03-21 02:21:00,
2013-03-20 22:31:00,33.4,6.8,29.91,SSW,213,0.0,0.0,32,0.00,,,0.00,VWS V12.08,2013-03-21 02:31:00,
2013-03-20 22:41:00,33.1,6.4,29.91,SSW,213,0.0,0.0,32,0.00,,,0.00,VWS V12.08,2013-03-21 02:41:00,
2013-03-20 22:46:00,32.7,6.1,29.91,SSW,213,0.0,0.0,32,0.00,,,0.00,VWS V12.08,2013-03-21 02:46:00,
2013-03-20 22:56:00,32.7,6.1,29.91,SSW,213,0.0,0.0,32,0.00,,,0.00,VWS V12.08,2013-03-21 02:56:00,
2013-03-20 23:04:00,32.5,6.0,29.91,SSW,213,0.0,0.0,32,0.00,,,0.00,VWS V12.08,2013-03-21 03:04:00,
2013-03-20 23:11:00,32.4,5.8,29.91,SSW,213,0.0,0.0,32,0.00,,,0.00,VWS V12.08,2013-03-21 03:11:00,
2013-03-20 23:21:00,32.2,6.3,29.91,SSW,213,0.0,0.0,33,0.00,,,0.00,VWS V12.08,2013-03-21 03:21:00,
2013-03-20 23:31:00,32.2,6.3,29.91,SSW,213,0.0,0.0,33,0.00,,,0.00,VWS V12.08,2013-03-21 03:31:00,
2013-03-20 23:41:00,32.4,6.5,29.91,SSW,213,0.0,0.0,33,0.00,,,0.00,VWS V12.08,2013-03-21 03:41:00,
2013-03-20 23:48:00,32.2,6.3,29.91,SSW,213,0.0,0.0,33,0.00,,,0.00,VWS V12.08,2013-03-21 03:48:00,
2013-03-20 23:56:00,32.2,7.0,29.91,SSW,213,0.0,0.0,34,0.00,,,0.00,VWS V12.08,2013-03-21 03:56:00,